Time;durP1;ratioP1;P1;durP2;ratioP2;P2;SDS_P1;SDS_P2;PMS_P1;PMS_P2;Temp;Humidity;BMP_temperature;BMP_pressure;BME280_temperature;BME280_humidity;BME280_pressure;Samples;Min_cycle;Max_cycle;Signal;HPM_P1;HPM_P2
2023/09/20 00:01:48;;;;;;;7.53;2.53;;;17.30;99.90;;;;;;5025456;28;20201;-67
2023/09/20 00:04:15;;;;;;;3.60;2.27;;;17.40;99.90;;;;;;5024873;28;20211;-67
2023/09/20 00:06:42;;;;;;;7.20;2.20;;;17.40;99.90;;;;;;5025194;28;20201;-67
2023/09/20 00:09:10;;;;;;;2.97;1.87;;;17.30;99.90;;;;;;5025619;28;20307;-67
2023/09/20 00:11:38;;;;;;;4.33;1.80;;;17.30;99.90;;;;;;5025192;28;20216;-67
2023/09/20 00:14:05;;;;;;;3.50;1.80;;;17.30;99.90;;;;;;5024856;28;20236;-67
2023/09/20 00:16:32;;;;;;;3.43;2.30;;;17.30;99.90;;;;;;5025081;28;20216;-67
2023/09/20 00:18:59;;;;;;;5.73;2.03;;;17.30;99.90;;;;;;5024826;28;20693;-67
2023/09/20 00:21:26;;;;;;;3.97;2.10;;;17.30;99.90;;;;;;5025175;28;20299;-67
2023/09/20 00:23:53;;;;;;;2.87;1.80;;;17.30;99.90;;;;;;5025290;28;20316;-67
2023/09/20 00:26:20;;;;;;;3.97;1.90;;;17.20;99.90;;;;;;5025207;28;20702;-67
2023/09/20 00:28:48;;;;;;;2.53;1.60;;;17.30;99.90;;;;;;5025018;28;20211;-67
2023/09/20 00:31:16;;;;;;;5.83;2.10;;;17.20;99.90;;;;;;5025316;28;20205;-67
2023/09/20 00:33:43;;;;;;;5.77;1.90;;;17.20;99.90;;;;;;5024230;28;20235;-67
2023/09/20 00:36:10;;;;;;;2.87;1.87;;;17.20;99.90;;;;;;5024303;28;20580;-67
2023/09/20 00:38:37;;;;;;;3.57;1.80;;;17.20;99.90;;;;;;5024220;28;20303;-67
2023/09/20 00:41:06;;;;;;;6.27;2.17;;;17.20;99.90;;;;;;5024710;28;20750;-67
2023/09/20 00:43:33;;;;;;;2.90;1.93;;;17.20;99.90;;;;;;5024543;28;20734;-67
2023/09/20 00:46:01;;;;;;;2.00;1.70;;;17.20;99.90;;;;;;5024460;28;20308;-67
2023/09/20 00:48:30;;;;;;;3.23;2.00;;;17.20;99.90;;;;;;5024473;28;20260;-67
2023/09/20 00:50:57;;;;;;;5.30;1.90;;;17.20;99.90;;;;;;5024742;28;20205;-67
2023/09/20 00:53:25;;;;;;;5.87;2.10;;;17.20;99.90;;;;;;5024130;28;20302;-67
2023/09/20 00:55:53;;;;;;;2.47;1.80;;;17.10;99.90;;;;;;5024960;28;20222;-67
2023/09/20 00:58:21;;;;;;;4.43;2.37;;;17.20;99.90;;;;;;5024856;28;20204;-68
2023/09/20 01:00:52;;;;;;;2.67;2.27;;;17.20;99.90;;;;;;5024362;28;20250;-68
2023/09/20 01:03:21;;;;;;;2.97;2.17;;;17.20;99.90;;;;;;5024269;28;20283;-68
2023/09/20 01:05:49;;;;;;;1.73;1.43;;;17.20;99.90;;;;;;5023963;28;20691;-68
2023/09/20 01:08:17;;;;;;;3.97;2.13;;;17.10;99.90;;;;;;5024297;28;20214;-67
2023/09/20 01:10:45;;;;;;;3.57;1.63;;;17.10;99.90;;;;;;5024093;28;20216;-67
2023/09/20 01:13:15;;;;;;;4.60;1.93;;;17.20;99.90;;;;;;5018505;28;20283;-67
2023/09/20 01:15:42;;;;;;;4.67;2.30;;;17.20;99.90;;;;;;5004855;28;20291;-69
2023/09/20 01:18:09;;;;;;;3.23;2.00;;;17.10;99.90;;;;;;5013441;28;20197;-68
2023/09/20 01:20:40;;;;;;;3.03;1.80;;;17.20;99.90;;;;;;5023938;28;20292;-69
2023/09/20 01:23:08;;;;;;;4.10;2.10;;;17.10;99.90;;;;;;5024566;28;20288;-69
2023/09/20 01:25:36;;;;;;;3.37;2.10;;;17.00;99.90;;;;;;5024385;28;20216;-68
2023/09/20 01:28:05;;;;;;;3.20;1.80;;;17.00;99.90;;;;;;5024740;28;20319;-68
2023/09/20 01:30:36;;;;;;;2.93;1.90;;;17.00;99.90;;;;;;5025087;28;20209;-68
2023/09/20 01:33:06;;;;;;;3.23;2.10;;;16.90;99.90;;;;;;5027765;28;20231;-68
2023/09/20 01:35:34;;;;;;;2.47;1.90;;;17.00;99.90;;;;;;5028104;28;20201;-69
2023/09/20 01:38:04;;;;;;;3.77;2.30;;;17.00;99.90;;;;;;5028649;28;20566;-69
2023/09/20 01:40:33;;;;;;;3.63;2.20;;;17.00;99.90;;;;;;5028779;28;20212;-69
2023/09/20 01:43:00;;;;;;;4.00;1.80;;;17.20;99.90;;;;;;5028135;28;20919;-69
2023/09/20 01:45:28;;;;;;;2.93;2.13;;;17.20;99.90;;;;;;5027927;28;20761;-69
2023/09/20 01:47:56;;;;;;;3.70;1.93;;;17.30;99.90;;;;;;5028227;28;20316;-69
2023/09/20 01:50:25;;;;;;;2.80;1.87;;;17.30;99.90;;;;;;5027892;28;20233;-69
2023/09/20 01:52:53;;;;;;;4.47;2.47;;;17.40;99.90;;;;;;5027890;28;20664;-68
2023/09/20 01:55:21;;;;;;;2.87;2.20;;;17.40;99.90;;;;;;5027888;28;20284;-68
2023/09/20 01:57:51;;;;;;;3.77;2.10;;;17.30;99.90;;;;;;5028208;28;20223;-68
2023/09/20 02:00:22;;;;;;;2.87;1.80;;;17.20;99.90;;;;;;5027768;28;20295;-69
2023/09/20 02:02:51;;;;;;;2.60;2.10;;;17.20;99.90;;;;;;5028108;28;20561;-69
2023/09/20 02:05:18;;;;;;;5.23;2.10;;;17.10;99.90;;;;;;5027311;28;20774;-69
2023/09/20 02:07:47;;;;;;;3.33;1.90;;;16.90;99.90;;;;;;5027147;28;20662;-69
2023/09/20 02:10:16;;;;;;;2.93;2.10;;;17.00;99.90;;;;;;5027420;28;20959;-69
2023/09/20 02:12:45;;;;;;;3.47;2.17;;;16.90;99.90;;;;;;5027416;28;20426;-68
2023/09/20 02:15:14;;;;;;;4.57;2.10;;;17.00;99.90;;;;;;5027601;28;20209;-68
2023/09/20 02:17:41;;;;;;;4.73;2.30;;;16.90;99.90;;;;;;5023019;28;20213;-71
2023/09/20 02:20:10;;;;;;;3.27;2.00;;;16.90;99.90;;;;;;5015452;28;20225;-68
2023/09/20 02:22:38;;;;;;;5.50;1.90;;;16.90;99.90;;;;;;5015292;28;20260;-68
2023/09/20 02:25:11;;;;;;;3.80;1.90;;;16.90;99.90;;;;;;5007307;28;20244;-69
2023/09/20 02:27:39;;;;;;;3.67;2.03;;;16.90;99.90;;;;;;5025833;28;20201;-68
2023/09/20 02:30:09;;;;;;;2.77;1.80;;;16.90;99.90;;;;;;5025537;28;20223;-68
2023/09/20 02:32:37;;;;;;;4.87;2.07;;;16.80;99.90;;;;;;5025303;28;20219;-69
2023/09/20 02:35:06;;;;;;;4.53;2.03;;;16.70;99.90;;;;;;5005832;28;20754;-68
2023/09/20 02:37:34;;;;;;;4.57;2.40;;;16.70;99.90;;;;;;5019367;28;20206;-68
2023/09/20 02:40:03;;;;;;;2.40;2.20;;;16.70;99.90;;;;;;5020405;28;20216;-69
2023/09/20 02:42:30;;;;;;;2.93;1.73;;;16.80;99.90;;;;;;5024989;28;20209;-69
2023/09/20 02:44:57;;;;;;;2.80;1.90;;;16.80;99.90;;;;;;5025346;28;20208;-68
2023/09/20 02:47:26;;;;;;;1.80;1.70;;;16.80;99.90;;;;;;5023167;28;20209;-68
2023/09/20 02:49:54;;;;;;;6.07;1.90;;;16.80;99.90;;;;;;5004951;28;20220;-68
2023/09/20 02:52:21;;;;;;;3.33;1.73;;;16.70;99.90;;;;;;5016524;28;20217;-69
2023/09/20 02:54:49;;;;;;;4.23;1.70;;;16.70;99.90;;;;;;5025069;28;20224;-68
2023/09/20 02:57:16;;;;;;;4.77;2.00;;;16.80;99.90;;;;;;5025192;28;20213;-68
2023/09/20 02:59:43;;;;;;;3.57;1.73;;;16.80;99.90;;;;;;5024971;28;20320;-69
2023/09/20 03:02:10;;;;;;;2.03;1.70;;;16.80;99.90;;;;;;5025286;28;20209;-68
2023/09/20 03:04:38;;;;;;;4.27;1.47;;;16.90;99.90;;;;;;5024372;28;20220;-68
2023/09/20 03:07:07;;;;;;;2.03;1.57;;;16.90;99.90;;;;;;5015647;28;20842;-68
2023/09/20 03:09:37;;;;;;;4.67;2.00;;;16.90;99.90;;;;;;5019251;28;20737;-69
2023/09/20 03:12:06;;;;;;;3.60;1.80;;;16.90;99.90;;;;;;5026296;28;20312;-68
2023/09/20 03:14:39;;;;;;;3.60;1.87;;;16.80;99.90;;;;;;5025785;28;20343;-68
2023/09/20 03:17:06;;;;;;;3.23;1.53;;;16.80;99.90;;;;;;5026291;28;20201;-68
2023/09/20 03:19:34;;;;;;;2.50;1.77;;;16.90;99.90;;;;;;5025590;28;20258;-68
2023/09/20 03:22:01;;;;;;;3.10;2.03;;;16.70;99.90;;;;;;5026025;28;20209;-68
2023/09/20 03:24:29;;;;;;;3.03;1.77;;;16.70;99.90;;;;;;5025802;28;20290;-68
2023/09/20 03:26:57;;;;;;;4.83;1.87;;;16.80;99.90;;;;;;5025768;28;20319;-68
2023/09/20 03:29:26;;;;;;;3.53;1.70;;;16.80;99.90;;;;;;5025468;28;20950;-68
2023/09/20 03:31:53;;;;;;;4.43;1.93;;;16.80;99.90;;;;;;5025736;28;20300;-68
2023/09/20 03:34:21;;;;;;;2.70;1.70;;;16.80;99.90;;;;;;5025505;28;20702;-69
2023/09/20 03:36:50;;;;;;;2.40;1.90;;;16.80;99.90;;;;;;5025994;28;20299;-68
2023/09/20 03:39:20;;;;;;;2.07;1.87;;;16.80;99.90;;;;;;5025924;28;20240;-69
2023/09/20 03:41:50;;;;;;;4.03;1.90;;;16.70;99.90;;;;;;5025763;28;20204;-68
2023/09/20 03:44:19;;;;;;;1.93;1.70;;;16.70;99.90;;;;;;5025482;28;20217;-68
2023/09/20 03:46:47;;;;;;;2.70;1.63;;;16.70;99.90;;;;;;5025797;28;20216;-68
2023/09/20 03:49:14;;;;;;;2.67;1.80;;;16.70;99.90;;;;;;5025440;28;20228;-68
2023/09/20 03:51:43;;;;;;;2.37;1.67;;;16.80;99.90;;;;;;5025800;28;20212;-68
2023/09/20 03:54:10;;;;;;;5.07;1.60;;;16.70;99.90;;;;;;5024170;28;20823;-68
2023/09/20 03:56:41;;;;;;;2.73;1.50;;;16.70;99.90;;;;;;5025077;28;20689;-68
2023/09/20 03:59:11;;;;;;;3.30;1.80;;;16.70;99.90;;;;;;5025148;28;20205;-69
2023/09/20 04:01:38;;;;;;;3.53;1.80;;;16.60;99.90;;;;;;5025364;28;20201;-69
2023/09/20 04:04:05;;;;;;;5.90;1.80;;;16.60;99.90;;;;;;5025387;28;20216;-68
2023/09/20 04:06:34;;;;;;;3.53;1.60;;;16.70;99.90;;;;;;5018221;28;20210;-69
2023/09/20 04:09:09;;;;;;;3.40;1.80;;;16.70;99.90;;;;;;5005352;28;20210;-68
2023/09/20 04:11:38;;;;;;;2.73;1.37;;;16.60;99.90;;;;;;5005272;28;20739;-68
2023/09/20 04:14:05;;;;;;;1.70;1.60;;;16.60;99.90;;;;;;5018640;28;20342;-69
2023/09/20 04:16:34;;;;;;;4.57;1.90;;;16.60;99.90;;;;;;5025090;28;20556;-69
2023/09/20 04:19:01;;;;;;;3.67;1.40;;;16.60;99.90;;;;;;5025526;28;20218;-69
2023/09/20 04:21:27;;;;;;;3.53;1.70;;;16.60;99.90;;;;;;5024506;28;20212;-68
2023/09/20 04:23:54;;;;;;;2.83;1.70;;;16.60;99.90;;;;;;5025063;28;20756;-68
2023/09/20 04:26:21;;;;;;;2.23;1.97;;;16.60;99.90;;;;;;5025157;28;20578;-69
2023/09/20 04:28:49;;;;;;;2.90;1.70;;;16.60;99.90;;;;;;5025032;28;20221;-68
2023/09/20 04:31:16;;;;;;;3.13;1.83;;;16.70;99.90;;;;;;5024987;28;20240;-69
2023/09/20 04:33:45;;;;;;;3.33;1.80;;;16.70;99.90;;;;;;5024666;28;20235;-69
2023/09/20 04:36:12;;;;;;;3.87;2.03;;;16.70;99.90;;;;;;5025259;28;20208;-69
2023/09/20 04:38:40;;;;;;;2.63;1.60;;;16.70;99.90;;;;;;5024769;28;20213;-69
2023/09/20 04:41:11;;;;;;;1.90;1.50;;;16.70;99.90;;;;;;5024581;28;20711;-69
2023/09/20 04:43:39;;;;;;;3.63;1.53;;;16.70;99.90;;;;;;5024781;28;20295;-68
2023/09/20 04:46:06;;;;;;;2.93;1.83;;;16.70;99.90;;;;;;5024598;28;20217;-69
2023/09/20 04:48:33;;;;;;;2.57;1.87;;;16.60;99.90;;;;;;5024670;28;20252;-69
2023/09/20 04:51:02;;;;;;;2.97;1.70;;;16.70;99.90;;;;;;5024773;28;20212;-69
2023/09/20 04:53:29;;;;;;;2.70;1.30;;;16.60;99.90;;;;;;5024560;28;20304;-68
2023/09/20 04:55:56;;;;;;;4.33;1.90;;;16.60;99.90;;;;;;5024906;28;20213;-68
2023/09/20 04:58:23;;;;;;;4.43;1.67;;;16.60;99.90;;;;;;5024345;28;20288;-69
2023/09/20 05:00:50;;;;;;;2.73;1.67;;;16.70;99.90;;;;;;5024566;28;20215;-69
2023/09/20 05:03:19;;;;;;;2.27;1.60;;;16.70;99.90;;;;;;5024348;28;20671;-68
2023/09/20 05:05:48;;;;;;;1.90;1.70;;;16.60;99.90;;;;;;5027362;28;20209;-68
2023/09/20 05:08:16;;;;;;;5.63;1.90;;;16.60;99.90;;;;;;5027771;28;20200;-68
2023/09/20 05:10:43;;;;;;;1.70;1.60;;;16.60;99.90;;;;;;5028566;28;20212;-69
2023/09/20 05:13:10;;;;;;;3.90;1.90;;;16.50;99.90;;;;;;5028905;28;20220;-68
2023/09/20 05:15:38;;;;;;;5.03;1.83;;;16.50;99.90;;;;;;5028183;28;20666;-69
2023/09/20 05:18:06;;;;;;;2.90;1.83;;;16.50;99.90;;;;;;5028178;28;20238;-69
2023/09/20 05:20:33;;;;;;;2.40;1.60;;;16.50;99.90;;;;;;5028330;28;20205;-69
2023/09/20 05:23:04;;;;;;;3.47;1.80;;;16.60;99.90;;;;;;5028665;28;20313;-69
2023/09/20 05:25:33;;;;;;;2.93;1.80;;;16.70;99.90;;;;;;5028689;28;20563;-69
2023/09/20 05:28:01;;;;;;;3.63;1.67;;;16.70;99.90;;;;;;5028447;28;20232;-68
2023/09/20 05:30:27;;;;;;;2.10;1.73;;;16.80;99.90;;;;;;5028047;28;20217;-69
2023/09/20 05:32:54;;;;;;;2.37;1.63;;;16.80;99.90;;;;;;5028764;28;20240;-69
2023/09/20 05:35:21;;;;;;;3.50;1.63;;;16.70;99.90;;;;;;5028471;28;20232;-69
2023/09/20 05:37:48;;;;;;;3.23;2.00;;;16.70;99.90;;;;;;5028661;28;20209;-69
2023/09/20 05:40:18;;;;;;;3.87;1.90;;;16.80;99.90;;;;;;5028053;28;20240;-69
2023/09/20 05:42:47;;;;;;;2.70;1.97;;;16.70;99.90;;;;;;5028586;28;20217;-68
2023/09/20 05:45:14;;;;;;;2.60;1.80;;;16.70;99.90;;;;;;5027653;28;20299;-69
2023/09/20 05:47:43;;;;;;;3.07;1.50;;;16.70;99.90;;;;;;5027742;28;20320;-69
2023/09/20 05:50:12;;;;;;;3.27;1.90;;;16.70;99.90;;;;;;5028205;28;20201;-69
2023/09/20 05:52:42;;;;;;;2.13;1.63;;;16.70;99.90;;;;;;5027767;28;20320;-69
2023/09/20 05:55:11;;;;;;;3.17;1.80;;;16.70;99.90;;;;;;5027765;28;20228;-68
2023/09/20 05:57:39;;;;;;;3.10;2.13;;;16.70;99.90;;;;;;5027999;28;20205;-68
2023/09/20 06:00:12;;;;;;;3.07;1.97;;;16.70;99.90;;;;;;5027386;28;20224;-68
2023/09/20 06:02:41;;;;;;;4.20;1.83;;;16.80;99.90;;;;;;5027338;28;20316;-68
2023/09/20 06:05:11;;;;;;;9.53;1.67;;;16.70;99.90;;;;;;5027915;28;20438;-68
2023/09/20 06:07:38;;;;;;;3.23;1.63;;;16.80;99.90;;;;;;5027973;28;20580;-68
2023/09/20 06:10:06;;;;;;;3.80;2.03;;;16.70;99.90;;;;;;5027439;28;20303;-68
2023/09/20 06:12:33;;;;;;;3.37;1.80;;;16.80;99.90;;;;;;5027542;28;20209;-69
2023/09/20 06:15:00;;;;;;;4.40;1.70;;;16.80;99.90;;;;;;5027088;28;20327;-68
2023/09/20 06:17:32;;;;;;;3.17;1.70;;;16.90;99.90;;;;;;5026292;28;20240;-68
2023/09/20 06:19:59;;;;;;;3.60;1.77;;;17.00;99.90;;;;;;5027026;28;20924;-68
2023/09/20 06:22:29;;;;;;;2.60;2.20;;;17.20;99.90;;;;;;5027269;28;20279;-68
2023/09/20 06:24:58;;;;;;;2.13;1.80;;;17.20;99.90;;;;;;5027094;28;20949;-68
2023/09/20 06:27:25;;;;;;;3.93;1.67;;;17.30;99.90;;;;;;5027282;28;20213;-68
2023/09/20 06:29:52;;;;;;;2.50;1.90;;;17.40;99.90;;;;;;5027018;28;20239;-71
2023/09/20 06:32:20;;;;;;;4.57;1.87;;;17.40;99.90;;;;;;5026999;28;20237;-68
2023/09/20 06:34:48;;;;;;;1.67;1.40;;;17.50;99.90;;;;;;5027048;28;20225;-68
2023/09/20 06:37:15;;;;;;;6.13;2.07;;;17.50;99.90;;;;;;5027252;28;20251;-69
2023/09/20 06:39:43;;;;;;;4.40;1.70;;;17.60;99.90;;;;;;5027002;28;20291;-69
2023/09/20 06:42:10;;;;;;;3.10;1.80;;;17.70;99.90;;;;;;5026837;28;20212;-69
2023/09/20 06:44:39;;;;;;;3.87;2.20;;;17.70;99.90;;;;;;5026410;28;20317;-68
2023/09/20 06:47:06;;;;;;;4.63;2.27;;;17.80;99.90;;;;;;5026624;28;20253;-69
2023/09/20 06:49:33;;;;;;;1.60;1.50;;;17.80;99.90;;;;;;5026511;28;20205;-68
2023/09/20 06:52:03;;;;;;;6.73;2.03;;;17.90;99.90;;;;;;5026738;28;20228;-69
2023/09/20 06:54:30;;;;;;;2.10;1.80;;;17.90;99.90;;;;;;5026208;28;20245;-69
2023/09/20 06:57:02;;;;;;;2.70;1.90;;;18.00;99.90;;;;;;5026849;28;20232;-69
2023/09/20 06:59:29;;;;;;;2.43;1.87;;;18.10;99.90;;;;;;5026450;28;20278;-68
2023/09/20 07:01:56;;;;;;;2.10;1.90;;;18.10;99.90;;;;;;5026561;28;20209;-69
2023/09/20 07:04:25;;;;;;;3.67;1.87;;;18.20;99.90;;;;;;5026268;28;20340;-69
2023/09/20 07:06:53;;;;;;;4.33;1.90;;;18.20;99.90;;;;;;5026226;28;20934;-69
2023/09/20 07:09:22;;;;;;;3.53;1.90;;;18.30;99.90;;;;;;5026228;28;20679;-68
2023/09/20 07:11:50;;;;;;;17.10;3.40;;;18.30;99.90;;;;;;5025888;28;20212;-68
2023/09/20 07:14:20;;;;;;;3.37;1.90;;;18.40;99.90;;;;;;5025987;28;20894;-69
2023/09/20 07:16:49;;;;;;;7.10;2.03;;;18.40;99.90;;;;;;5025905;28;20240;-68
2023/09/20 07:19:17;;;;;;;3.93;2.17;;;18.50;99.90;;;;;;5025879;28;20231;-69
2023/09/20 07:21:45;;;;;;;4.20;2.20;;;18.40;99.90;;;;;;5026197;28;20756;-69
2023/09/20 07:24:12;;;;;;;4.53;1.90;;;18.50;99.90;;;;;;5026531;28;20208;-69
2023/09/20 07:26:43;;;;;;;3.13;1.50;;;18.50;99.90;;;;;;5026109;28;20208;-69
2023/09/20 07:29:12;;;;;;;2.60;1.77;;;18.60;99.90;;;;;;5026172;28;20201;-69
2023/09/20 07:31:39;;;;;;;3.43;1.70;;;18.50;99.90;;;;;;5026329;28;20216;-68
2023/09/20 07:34:08;;;;;;;6.37;1.80;;;18.40;99.90;;;;;;5025494;28;20745;-68
2023/09/20 07:36:37;;;;;;;2.77;1.63;;;18.40;99.90;;;;;;5025937;28;20510;-68
2023/09/20 07:39:07;;;;;;;2.30;1.67;;;18.50;99.90;;;;;;5026220;28;20762;-68
2023/09/20 07:41:34;;;;;;;16.90;2.30;;;18.50;99.90;;;;;;5025981;28;20197;-69
2023/09/20 07:44:04;;;;;;;2.17;1.63;;;18.60;99.90;;;;;;5025547;28;20667;-69
2023/09/20 07:46:34;;;;;;;2.53;2.10;;;18.60;99.90;;;;;;5025848;28;20243;-69
2023/09/20 07:49:09;;;;;;;2.10;1.50;;;18.60;99.90;;;;;;5025946;28;20229;-69
2023/09/20 07:51:36;;;;;;;3.27;2.03;;;18.50;99.90;;;;;;5026078;28;20499;-68
2023/09/20 07:54:06;;;;;;;3.33;1.70;;;18.50;99.90;;;;;;5025690;28;20282;-69
2023/09/20 07:56:34;;;;;;;3.23;1.60;;;18.50;99.90;;;;;;5025355;28;20718;-69
2023/09/20 07:59:01;;;;;;;2.23;2.00;;;18.60;99.90;;;;;;5025467;28;20679;-68
2023/09/20 08:01:30;;;;;;;5.13;1.87;;;18.60;99.90;;;;;;5025443;28;20646;-69
2023/09/20 08:03:59;;;;;;;2.73;1.83;;;18.80;99.90;;;;;;5025647;28;20288;-69
2023/09/20 08:06:28;;;;;;;5.17;1.83;;;18.90;99.90;;;;;;5024836;28;20211;-69
2023/09/20 08:08:55;;;;;;;3.70;2.07;;;19.00;99.90;;;;;;5025295;28;20574;-69
2023/09/20 08:11:22;;;;;;;2.17;1.57;;;19.10;99.90;;;;;;5025133;28;20234;-69
2023/09/20 08:13:52;;;;;;;2.83;1.70;;;19.20;99.90;;;;;;5025322;28;20223;-69
2023/09/20 08:16:19;;;;;;;3.27;1.50;;;19.30;99.90;;;;;;5025028;28;20243;-69
2023/09/20 08:19:06;;;;;;;3.33;1.97;;;19.30;99.90;;;;;;5025163;28;20205;-69
2023/09/20 08:21:34;;;;;;;3.53;1.80;;;19.40;99.90;;;;;;5025542;28;20188;-69
2023/09/20 09:00:00;;;;;;;3.57;2.00;;;20.40;99.90;;;;;;5024409;28;20637;-68
2023/09/20 09:02:28;;;;;;;2.17;1.97;;;20.50;99.90;;;;;;5024073;28;20299;-69
2023/09/20 09:04:55;;;;;;;4.33;1.80;;;20.60;99.90;;;;;;5024457;28;20723;-69
2023/09/20 09:07:24;;;;;;;2.88;1.88;;;20.60;99.90;;;;;;5010506;28;20775;-69
2023/09/20 09:09:52;;;;;;;5.33;2.00;;;20.50;99.90;;;;;;5006043;28;20308;-69
2023/09/20 09:12:19;;;;;;;3.10;1.70;;;20.50;99.90;;;;;;5024779;28;20214;-69
2023/09/20 09:14:49;;;;;;;3.17;1.90;;;20.40;99.90;;;;;;5024373;28;20647;-69
2023/09/20 09:17:16;;;;;;;3.70;1.80;;;20.50;99.90;;;;;;5024864;28;20213;-69
2023/09/20 09:19:43;;;;;;;2.90;2.10;;;20.50;99.90;;;;;;5025074;28;20216;-68
2023/09/20 09:22:10;;;;;;;6.10;2.20;;;20.40;99.90;;;;;;5024818;28;20279;-69
2023/09/20 09:24:47;;;;;;;2.08;1.60;;;20.50;99.90;;;;;;5024592;28;20212;-69
2023/09/20 09:27:15;;;;;;;3.38;1.77;;;20.50;99.90;;;;;;5005027;28;20211;-69
2023/09/20 09:29:43;;;;;;;3.60;2.20;;;20.50;99.90;;;;;;5004762;28;20206;-69
2023/09/20 09:32:10;;;;;;;5.28;1.80;;;20.40;99.90;;;;;;5004614;28;20301;-69
2023/09/20 09:34:38;;;;;;;2.73;2.13;;;20.50;99.90;;;;;;5004535;28;20313;-69
2023/09/20 09:37:05;;;;;;;3.70;1.70;;;20.50;99.90;;;;;;5004779;28;20237;-68
2023/09/20 09:39:32;;;;;;;3.50;1.50;;;20.50;99.90;;;;;;5004510;28;20217;-69
2023/09/20 09:42:01;;;;;;;2.90;1.85;;;20.50;99.90;;;;;;5004662;28;20297;-68
2023/09/20 09:44:28;;;;;;;2.80;2.08;;;20.50;99.90;;;;;;5020546;28;20213;-68
2023/09/20 09:46:56;;;;;;;4.50;1.90;;;20.40;99.90;;;;;;5023947;28;20308;-69
2023/09/20 09:49:25;;;;;;;2.97;1.95;;;20.40;99.90;;;;;;5024213;28;20232;-69
2023/09/20 09:51:53;;;;;;;5.00;1.90;;;20.50;99.90;;;;;;5025647;28;20303;-69
2023/09/20 09:54:22;;;;;;;2.38;2.03;;;20.50;99.90;;;;;;5027675;28;20248;-70
2023/09/20 09:56:49;;;;;;;3.97;1.80;;;20.70;99.90;;;;;;5027857;28;20312;-69
2023/09/20 09:59:17;;;;;;;3.03;1.90;;;20.80;99.90;;;;;;5027252;28;20695;-69
2023/09/20 10:01:46;;;;;;;3.57;2.00;;;21.00;99.90;;;;;;5027993;28;20691;-69
2023/09/20 10:04:17;;;;;;;2.90;2.23;;;21.10;99.90;;;;;;5028213;28;20254;-69
2023/09/20 10:06:52;;;;;;;4.40;2.30;;;21.30;99.90;;;;;;5025853;28;20240;-69
2023/09/20 10:09:25;;;;;;;4.15;2.22;;;21.40;99.90;;;;;;5027917;28;20308;-69
2023/09/20 10:11:52;;;;;;;5.40;1.83;;;21.50;99.90;;;;;;5027672;28;20197;-69
2023/09/20 10:14:22;;;;;;;1.92;1.73;;;21.60;99.90;;;;;;5027363;28;20299;-70
2023/09/20 10:16:49;;;;;;;3.92;2.05;;;21.70;99.90;;;;;;5027571;28;20425;-69
2023/09/20 10:19:17;;;;;;;1.75;1.65;;;21.70;99.90;;;;;;5027585;28;20536;-69
2023/09/20 10:22:02;;;;;;;4.88;2.08;;;21.80;99.90;;;;;;5027163;28;20304;-69
2023/09/20 10:24:30;;;;;;;2.78;1.80;;;21.90;99.90;;;;;;5027665;28;20204;-68
2023/09/20 10:27:03;;;;;;;7.95;2.50;;;22.10;99.90;;;;;;5027284;28;20302;-68
2023/09/20 10:29:33;;;;;;;4.68;1.63;;;22.30;99.90;;;;;;5027131;28;20228;-69
2023/09/20 10:32:13;;;;;;;5.32;2.00;;;22.50;99.90;;;;;;5027245;28;20207;-68
2023/09/20 10:34:41;;;;;;;2.38;2.00;;;22.60;99.90;;;;;;5027015;28;20200;-68
2023/09/20 10:37:09;;;;;;;4.45;2.20;;;22.70;99.90;;;;;;5027328;28;20236;-69
2023/09/20 10:39:38;;;;;;;2.78;2.00;;;22.80;99.90;;;;;;5026828;28;20380;-68
2023/09/20 10:42:12;;;;;;;2.92;1.88;;;22.80;99.90;;;;;;5027137;28;20212;-68
2023/09/20 10:44:42;;;;;;;3.85;2.03;;;22.90;99.90;;;;;;5026933;28;20215;-68
2023/09/20 10:47:12;;;;;;;4.80;1.55;;;23.00;99.90;;;;;;5027122;28;20260;-69
2023/09/20 10:49:44;;;;;;;2.45;1.75;;;22.80;99.90;;;;;;5027066;28;20244;-69
2023/09/20 10:52:12;;;;;;;3.22;2.17;;;22.60;99.90;;;;;;5026990;28;20239;-68
2023/09/20 10:54:39;;;;;;;5.88;2.00;;;22.50;99.90;;;;;;5026704;28;20208;-69
2023/09/20 10:57:09;;;;;;;2.15;1.83;;;22.50;99.90;;;;;;5026299;28;20247;-69
2023/09/20 10:59:37;;;;;;;1.95;1.65;;;22.40;99.90;;;;;;5026374;28;20727;-69
2023/09/20 11:02:08;;;;;;;6.00;2.00;;;22.50;99.90;;;;;;5026411;28;20572;-69
2023/09/20 11:04:36;;;;;;;2.47;1.95;;;22.40;99.90;;;;;;5026711;28;20623;-69
2023/09/20 11:07:03;;;;;;;7.43;2.10;;;22.50;99.90;;;;;;5026694;28;20251;-69
2023/09/20 11:09:33;;;;;;;6.82;2.10;;;22.60;99.90;;;;;;5026130;28;20212;-69
2023/09/20 11:12:04;;;;;;;3.38;2.20;;;22.70;99.90;;;;;;5026627;28;20316;-69
2023/09/20 11:14:39;;;;;;;2.05;1.52;;;22.70;99.90;;;;;;5026380;28;20208;-69
2023/09/20 11:17:07;;;;;;;3.90;1.65;;;22.70;99.90;;;;;;5026288;28;21006;-69
2023/09/20 11:19:35;;;;;;;2.10;1.60;;;22.60;99.90;;;;;;5026348;28;20642;-69
2023/09/20 11:22:03;;;;;;;5.22;1.58;;;22.70;99.90;;;;;;5026148;28;20681;-69
2023/09/20 11:24:32;;;;;;;3.35;1.33;;;22.70;99.90;;;;;;5026390;28;20335;-69
2023/09/20 11:27:00;;;;;;;5.00;1.70;;;22.70;99.90;;;;;;5026534;28;20216;-69
2023/09/20 11:29:27;;;;;;;2.42;1.75;;;22.60;99.90;;;;;;5025884;28;20296;-69
2023/09/20 11:31:58;;;;;;;2.67;1.30;;;22.60;99.90;;;;;;5026513;28;20288;-69
2023/09/20 11:34:28;;;;;;;4.35;1.83;;;22.50;99.90;;;;;;5026320;28;20265;-69
2023/09/20 11:36:57;;;;;;;4.10;1.25;;;22.70;99.90;;;;;;5026265;28;20231;-69
2023/09/20 11:39:30;;;;;;;2.72;2.00;;;23.00;99.90;;;;;;5025993;28;20211;-69
2023/09/20 11:42:05;;;;;;;3.35;1.70;;;23.30;99.90;;;;;;5025866;28;20739;-69
2023/09/20 11:44:36;;;;;;;3.80;1.80;;;23.60;99.90;;;;;;5026214;28;20208;-69
2023/09/20 11:47:04;;;;;;;3.22;1.70;;;23.70;99.90;;;;;;5025996;28;20229;-69
2023/09/20 11:49:34;;;;;;;3.75;2.08;;;23.90;99.90;;;;;;5025743;28;20234;-69
2023/09/20 11:52:03;;;;;;;5.47;1.85;;;24.10;99.90;;;;;;5025548;28;20303;-69
2023/09/20 11:54:30;;;;;;;2.05;1.70;;;24.30;99.90;;;;;;5025661;28;20240;-70
2023/09/20 11:57:00;;;;;;;2.80;1.90;;;24.50;99.90;;;;;;5025959;28;20323;-69
2023/09/20 11:59:27;;;;;;;3.97;2.03;;;24.60;99.90;;;;;;5025258;28;20205;-69
2023/09/20 12:01:55;;;;;;;2.22;1.60;;;24.60;99.90;;;;;;5026021;28;20291;-69
2023/09/20 12:04:24;;;;;;;8.68;1.98;;;24.50;99.90;;;;;;5025334;28;20212;-69
2023/09/20 12:06:53;;;;;;;3.95;1.85;;;24.40;99.90;;;;;;5025337;28;20667;-69
2023/09/20 12:09:21;;;;;;;2.50;1.60;;;24.50;99.90;;;;;;5025442;28;20213;-69
2023/09/20 12:11:49;;;;;;;3.28;1.90;;;24.40;99.90;;;;;;5025680;28;20617;-69
2023/09/20 12:14:16;;;;;;;2.70;1.45;;;24.40;99.90;;;;;;5025086;28;20200;-69
2023/09/20 12:16:47;;;;;;;1.50;1.40;;;24.20;99.90;;;;;;5025632;28;20329;-69
2023/09/20 12:19:15;;;;;;;1.80;1.70;;;24.10;99.90;;;;;;5025812;28;20204;-70
2023/09/20 12:21:44;;;;;;;2.55;1.45;;;24.10;99.90;;;;;;5025222;28;20308;-69
2023/09/20 12:24:13;;;;;;;2.20;1.48;;;24.40;99.90;;;;;;5025400;28;20216;-69
2023/09/20 12:26:40;;;;;;;2.33;1.55;;;24.40;99.90;;;;;;5024715;28;20674;-69
2023/09/20 12:29:08;;;;;;;1.88;1.60;;;24.40;99.90;;;;;;5025112;28;20242;-69
2023/09/20 12:31:35;;;;;;;5.53;1.58;;;24.50;99.90;;;;;;5024901;28;20296;-69
2023/09/20 12:34:01;;;;;;;3.60;1.77;;;24.70;99.90;;;;;;5022485;28;20209;-71
2023/09/20 12:36:29;;;;;;;1.73;1.40;;;24.60;99.90;;;;;;5016805;28;20876;-69
2023/09/20 12:38:56;;;;;;;1.98;1.80;;;24.50;99.90;;;;;;5016015;28;20197;-70
2023/09/20 12:41:25;;;;;;;1.95;1.58;;;24.50;99.90;;;;;;5016236;28;20547;-70
2023/09/20 12:43:52;;;;;;;2.40;1.35;;;24.60;99.90;;;;;;5019840;28;20286;-70
2023/09/20 12:46:21;;;;;;;4.20;1.70;;;24.60;99.90;;;;;;5024078;28;20434;-70
2023/09/20 12:48:48;;;;;;;2.97;1.60;;;24.70;99.90;;;;;;5024322;28;20213;-69
2023/09/20 12:51:16;;;;;;;3.33;1.50;;;25.00;99.90;;;;;;5024355;28;20274;-70
2023/09/20 12:53:43;;;;;;;3.08;1.45;;;25.10;99.90;;;;;;5024548;28;20304;-70
2023/09/20 12:56:11;;;;;;;5.07;1.73;;;25.30;99.90;;;;;;5024816;28;20225;-70
2023/09/20 12:58:42;;;;;;;2.20;1.67;;;25.40;99.90;;;;;;5024635;28;20274;-71
2023/09/20 13:01:11;;;;;;;3.88;2.00;;;25.40;99.90;;;;;;5024408;28;20296;-70
2023/09/20 13:03:40;;;;;;;2.65;1.58;;;25.50;99.90;;;;;;5024530;28;20278;-69
2023/09/20 13:06:09;;;;;;;2.67;1.48;;;25.40;99.90;;;;;;5024604;28;20983;-69
2023/09/20 13:08:37;;;;;;;2.50;1.40;;;25.10;99.90;;;;;;5024654;28;20554;-70
2023/09/20 13:11:05;;;;;;;3.58;1.40;;;25.00;99.90;;;;;;5024878;28;20212;-69
2023/09/20 13:13:32;;;;;;;3.65;1.58;;;24.90;99.90;;;;;;5023912;28;20777;-69
2023/09/20 13:16:00;;;;;;;3.58;1.42;;;24.90;99.90;;;;;;5024413;28;20244;-69
2023/09/20 13:18:28;;;;;;;1.95;1.58;;;24.80;99.90;;;;;;5024315;28;20292;-68
2023/09/20 13:20:58;;;;;;;2.55;1.50;;;24.80;99.90;;;;;;5023759;28;20201;-69
2023/09/20 13:23:26;;;;;;;3.13;1.60;;;25.10;99.90;;;;;;5024000;28;20212;-69
2023/09/20 13:25:53;;;;;;;2.15;1.50;;;25.60;99.90;;;;;;5024736;28;20216;-69
2023/09/20 13:28:20;;;;;;;2.70;1.60;;;25.90;99.90;;;;;;5027570;28;20197;-70
2023/09/20 13:30:47;;;;;;;8.23;1.77;;;26.10;99.90;;;;;;5025046;28;20219;-69